Flight Track Log - Related Links

Times and Time Zones

All times are in EST time to prevent confusion due to time zone crossing. See the SWA2728 flight status page for this flight to view local times or setup timezone preferences in your user account.

Time Position Orientation Groundspeed Altitude Reporting Facility
EST Latitude Longitude Course Direction KTS MPH feet Rate Location/Type
Sat 08:07:24 AM 39.1833 -76.7167 156° South 166 191 2,000  Level Potomac TRACON
Sat 08:09:24 AM 39.1169 -76.6778 156° South 95 109 7,000 2,800 Climbing Washington Center
Sat 08:10:24 AM 39.1344 -76.5708 78° East 156 180 10,400 3,246 Climbing Washington Center
Sat 08:11:26 AM 39.1397 -76.4453 87° East 271 312 13,600 2,927 Climbing Washington Center
Sat 08:12:27 AM 39.1467 -76.3061 86° East 323 372 16,400 2,874 Climbing Washington Center
Sat 08:13:25 AM 39.1622 -76.1511 83° East 414 476 19,300 2,847 Climbing Washington Center
Sat 08:14:25 AM 39.1794 -75.9958 82° East 427 491 22,000 2,331 Climbing Washington Center
Sat 08:15:26 AM 39.2258 -75.8353 70° East 455 524 24,000 2,083 Climbing Washington Center
Sat 08:16:26 AM 39.3281 -75.7069 44° Northeast 468 539 26,200 2,150 Climbing Washington Center
Sat 08:17:26 AM 39.4322 -75.5700 45° Northeast 513 590 28,300 1,934 Climbing Washington Center
Sat 08:18:58 AM 39.6072 -75.3461 45° Northeast 562 647 31,100 1,922 Climbing New York Center
Sat 08:19:59 AM 39.7169 -75.1914 47° Northeast 580 667 33,200 1,902 Climbing New York Center
Sat 08:21:01 AM 39.8317 -75.0286 47° Northeast 584 672 35,000 878 Climbing New York Center
Sat 08:22:02 AM 39.9397 -74.8736 48° Northeast 581 669 35,000  Level New York Center
Sat 08:23:04 AM 40.0531 -74.7014 49° Northeast 594 684 35,000  Level New York Center
Sat 08:24:05 AM 40.1572 -74.5400 50° Northeast 582 670 35,000  Level New York Center
Sat 08:25:07 AM 40.2631 -74.3769 50° Northeast 585 673 35,000  Level New York Center
Sat 08:26:08 AM 40.3672 -74.2150 50° Northeast 582 670 35,000  Level New York Center
Sat 08:27:09 AM 40.4711 -74.0525 50° Northeast 582 670 35,000 -244 Level New York Center
Sat 08:28:11 AM 40.5756 -73.8917 49° Northeast 581 669 34,500 -1,902 Descending New York Center
Sat 08:29:12 AM 40.6947 -73.7047 50° Northeast 583 671 31,100 -2,976 Descending New York Center
Sat 08:30:14 AM 40.7978 -73.5414 50° Northeast 578 665 28,400 -2,050 Descending New York Center
Sat 08:31:12 AM 40.8769 -73.4158 50° Northeast 560 644 27,000 -1,261 Descending Boston Center
Sat 08:32:13 AM 40.9753 -73.2719 48° Northeast 528 608 25,900 -1,131 Descending Boston Center
Sat 08:33:14 AM 41.0858 -73.1072 48° Northeast 505 581 24,700 -1,082 Descending Boston Center
Sat 08:34:15 AM 41.1733 -72.9753 49° Northeast 487 560 23,700 -836 Descending Boston Center
Sat 08:35:16 AM 41.2461 -72.8244 57° Northeast 498 573 23,000 -347 Descending Boston Center
Sat 08:36:16 AM 41.3061 -72.6483 66° East 502 578 23,000  Level Boston Center
Sat 08:37:29 AM 41.3656 -72.4800 65° Northeast 500 575 23,000  Level Boston Center
Sat 08:38:30 AM 41.4358 -72.2756 65° Northeast 504 580 23,000  Level Boston Center
Sat 08:39:31 AM 41.4942 -72.1075 65° Northeast 501 577 23,000  Level Boston Center
Sat 08:40:31 AM 41.5472 -71.9519 65° Northeast 503 579 23,000 -893 Level Boston Center
Sat 08:41:32 AM 41.6047 -71.7833 65° Northeast 502 578 21,200 -2,311 Descending Boston Center
Sat 08:42:33 AM 41.6700 -71.5933 65° Northeast 478 550 18,300 -2,557 Descending Boston Center
Sat 08:43:34 AM 41.7197 -71.4472 65° Northeast 439 505 16,000 -2,380 Descending Boston Center
Sat 08:44:34 AM 41.7786 -71.3042 61° Northeast 440 506 13,500 -2,331 Descending Boston Center
Sat 08:45:35 AM 41.8361 -71.1711 60° Northeast 419 482 11,300 -1,672 Descending Boston Center
Sat 08:46:36 AM 41.8992 -71.0669 51° Northeast 356 410 10,100 -1,388 Descending Boston Center
Sat 08:47:36 AM 41.9597 -70.9708 50° Northeast 314 361 8,500 -1,835 Descending Boston Center
Sat 08:48:37 AM 42.0311 -70.9364 20° North 275 316 6,400 -1,918 Descending Boston Center
Sat 08:49:38 AM 42.1028 -70.9011 20° North 275 316 4,600 -1,180 Descending Boston Center
Sat 08:50:39 AM 42.1672 -70.8783 15° North 238 274 4,000 -545 Descending Boston Center
Sat 08:51:39 AM 42.2275 -70.8778 360° North 217 250 3,500 -694 Descending Boston Center
Sat 08:52:40 AM 42.2758 -70.8850 354° North 165 190 2,600 -885 Descending Boston Center
Sat 08:53:41 AM 42.3028 -70.9225 314° West 139 160 1,700 -787 Descending Boston Center
Sat 08:54:42 AM 42.3239 -70.9494 317° Northwest 124 143 1,000 -590 Descending Boston Center
Sat 08:55:43 AM 42.3494 -70.9811 318° Northwest 117 135 500 -492 Descending Boston Center
Sat 08:57:00 AM 42.3500 -71.0000 North  Level FlightAware Approximate
Sat 09:04:00 AM 42.3630 -71.0064 North  Level Estimated

Login

Don't have an account? Register now (free) for customized features, flight alerts, and more!